Tiempo atmosférico en la estación meteorológica de Adeje, Santa Cruz de Tenerife (130 m.)



Fecha
DESCASC
Temp. máxima en grados centígrados (hora)
DESCASC
Temp. mínima en grados centígrados (hora)
DESCASC
Temp. media en grados centígrados
DESCASC
Racha de viento máxima en m/sg (hora)
DESCASC
Velocidad máxima media en intervalos de 10 minutos(hora)
DESCASC
Precipitaciones diarias en mm
DESCASC
Precipitaciones de 00:00 a 06:00 en mm
DESCASC
Precipitaciones de 06:00 a 12:00 en mm
DESCASC
Precipitaciones de 12:00 a 18:00 en mm
DESCASC
Precipitaciones de 18:00 a 24:00 en mm
DESCASC
18-01-2018 21.8 (16:30) 14.4 (03:10) 18.1 5.83 (13:50) 2.78 (14:10) 0 0 0 0 0
17-01-2018 21.7 (14:50) 14.4 (02:20) 18.1 6.11 (13:40) 3.61 (13:30) 0 0 0 0 0
16-01-2018 22 (13:50) 14.5 (03:10) 18.3 7.5 (10:00) 3.89 (11:20) 0 0 0 0 0
15-01-2018 22.4 (15:20) 14 (07:20) 18.2 8.61 (15:50) 4.72 (15:50) 0 0 0 0 0
14-01-2018 21.5 (17:40) 14.4 (00:00) 17.9 5.56 (15:50) 2.5 (13:30) 0 0 0 0 0
13-01-2018 21.5 (11:30) 15 (00:00) 18.3 6.39 (11:50) 3.33 (13:30) 0 0 0 0 0
12-01-2018 21.2 (13:40) 12.4 (00:00) 16.8 5 (14:00) 2.78 (14:00) 0 0 0 0 0
11-01-2018 22.2 (13:20) 14.5 (00:00) 18.4 5.83 (13:00) 3.33 (13:00) 0 0 0 0 0
10-01-2018 22.4 (15:20) 14.8 (00:00) 18.6 3.89 (15:20) 2.5 (07:10) 0 0 0 0 0
09-01-2018 21.8 (12:20) 15.2 (00:00) 18.5 4.72 (14:40) 2.22 (12:10) 0 0 0 0 0
08-01-2018 21.7 (13:50) 15 (00:00) 18.4 7.22 (20:00) 3.33 (15:10) 0.2 0 0 0 0.2
07-01-2018 22.2 (14:10) 14.3 (00:00) 18.3 7.22 (13:10) 3.06 (16:00) 0 0 0 0 0
06-01-2018 21.8 (15:40) 16 (00:00) 18.9 14.44 (17:00) 5.28 (15:00) 0 0 0 0 0
05-01-2018 23 (13:30) 12.9 (00:00) 17.9 8.61 (17:00) 3.89 (17:50) 0 0 0 0 0
04-01-2018 23.8 (12:20) 12.3 (05:00) 18 5.83 (14:40) 3.06 (12:30) 0 0 0 0 0
03-01-2018 24.9 (13:30) 13.6 (00:00) 19.3 4.44 (15:10) 2.22 (15:00) 0 0 0 0 0
02-01-2018 24.7 (13:30) 13.9 (00:00) 19.3 4.44 (13:20) 2.5 (12:20) 0 0 0 0 0
01-01-2018 23.6 (15:40) 15.1 (00:00) 19.4 5 (13:20) 3.06 (13:50) 0 0 0 0 0
31-12-2017 24.6 (16:40) 14.6 (00:00) 19.6 4.72 (15:10) 2.5 (22:40) 0 0 0 0 0
30-12-2017 22.6 (14:30) 15.6 (00:00) 19.1 4.44 (14:50) 2.78 (15:00) 0 0 0 0 0
29-12-2017 22.5 (13:20) 16 (00:00) 19.3 5.28 (13:10) 2.5 (13:00) 0 0 0 0 0
28-12-2017 22.6 (15:30) 14.2 (00:00) 18.4 5 (13:30) 2.5 (04:30) 0 0 0 0 0
27-12-2017 21.2 (13:00) 12.5 (00:00) 16.9 5.83 (14:30) 3.33 (15:10) 0 0 0 0 0
26-12-2017 22.1 (12:30) 12.9 (00:00) 17.5 7.78 (04:30) 3.61 (04:30) 0 0 0 0 0
25-12-2017 21.6 (14:30) 13.9 (00:00) 17.8 10 (11:50) 4.44 (02:50) 0 0 0 0 0
24-12-2017 21.3 (13:20) 13.4 (00:00) 17.3 8.61 (06:30) 4.17 (06:00) 0 0 0 0 0

Gráficas

Temp. máximas Temp. mínimas Temp. medias Precipitaciones Rachas de viento máximas Velocidades máximas media en intervalos de 10 minutos

Datos horarios

Fecha y hora oficial Temperatura (ºC) Velocidad del viento (km/h) Dirección del viento Racha (km/h) Dirección de racha Precipitación (mm) Presión (hPa) Tendencia (hPa) Humedad (%)
2018-01-22 23:00:00 -- -- -- -- -- -- -- -- --
2018-01-22 22:00:00 -- -- -- -- -- -- -- -- --
2018-01-22 21:00:00 16.7 3 Este 6 Este 0 -- -- 73
2018-01-22 20:00:00 17.5 2 Sudeste 6 Sur 0 -- -- 71
2018-01-22 19:00:00 18.6 0 Calma 8 Sudoeste 0 -- -- 61
2018-01-22 18:00:00 21.6 5 Sudoeste 12 Sudoeste 0 -- -- 51
2018-01-22 17:00:00 22.4 8 Sudoeste 15 Sudoeste 0 -- -- 50
2018-01-22 16:00:00 23.4 8 Sudoeste 14 Sudoeste 0 -- -- 45
2018-01-22 15:00:00 23.8 9 Sudoeste 15 Sudoeste 0 -- -- 45
2018-01-22 14:00:00 24.1 8 Sudoeste 17 Sudoeste 0 -- -- 32
2018-01-22 13:00:00 24 7 Oeste 17 Oeste 0 -- -- 32
2018-01-22 12:00:00 22.8 6 Sudoeste 11 Sudoeste 0 -- -- 34
2018-01-22 11:00:00 19.8 2 Sur 4 Sur 0 -- -- 43
2018-01-22 10:00:00 13.9 0 Calma 5 Sudeste 0 -- -- 49
2018-01-22 09:00:00 12.7 0 Calma 8 Sudoeste 0 -- -- 63
2018-01-22 08:00:00 12.9 4 Sur 6 Sur 0 -- -- 82
2018-01-22 07:00:00 12.9 0 Calma 5 Nordeste 0 -- -- 79
2018-01-22 06:00:00 13 0 Calma 8 Este 0 -- -- 76
2018-01-22 05:00:00 14.7 4 Este 8 Nordeste 0 -- -- 72
2018-01-22 04:00:00 14.6 4 Nordeste 8 Nordeste 0 -- -- 74
2018-01-22 03:00:00 14.3 0 Calma 5 Nordeste 0 -- -- 69
2018-01-22 02:00:00 15.8 2 Nordeste 8 Este 0 -- -- 59
2018-01-22 01:00:00 14 0 Calma 8 Este 0 -- -- 76
2018-01-22 00:00:00 15.4 2 Sudeste 10 Nordeste 0 -- -- 70
2018-01-21 23:00:00 16.2 4 Este 7 Este 0 -- -- 78
2018-01-21 22:00:00 15.6 0 Calma 4 Sudeste 0 -- -- 71
2018-01-21 21:00:00 16.5 0 Calma 8 Sudeste 0 -- -- 57
2018-01-21 20:00:00 18.2 6 Sur 8 Sur 0 -- -- 55
2018-01-21 19:00:00 19.3 3 Norte 8 Oeste 0 -- -- 46
2018-01-21 18:00:00 22.1 5 Oeste 14 Oeste 0 -- -- 44
2018-01-21 17:00:00 23.5 8 Oeste 15 Sudoeste 0 -- -- 41
2018-01-21 16:00:00 24.4 8 Oeste 19 Sudoeste 0 -- -- 37
2018-01-21 15:00:00 23.6 9 Sudoeste 36 Sudoeste 0 -- -- 40
2018-01-21 14:00:00 24.7 16 Sudoeste 32 Sudoeste 0 -- -- 31
2018-01-21 13:00:00 24.3 9 Norte 29 Oeste 0 -- -- 31
2018-01-21 12:00:00 23.9 7 Noroeste 21 Oeste 0 -- -- 29
2018-01-21 11:00:00 23.1 8 Norte 24 Sur 0 -- -- 27
2018-01-21 10:00:00 20.2 6 Norte 16 Oeste 0 -- -- 32
2018-01-21 09:00:00 17.7 5 Este 19 Este 0 -- -- 37
2018-01-21 08:00:00 14.3 2 Nordeste 6 Nordeste 0 -- -- 84
2018-01-21 07:00:00 12.5 0 Calma 7 Nordeste 0 -- -- 71
2018-01-21 06:00:00 12.1 0 Calma 6 Nordeste 0 -- -- 70
2018-01-21 05:00:00 11.8 0 Calma 8 Sudeste 0 -- -- 80
2018-01-21 04:00:00 12.2 2 Sur 7 Norte 0 -- -- 80
2018-01-21 03:00:00 14 3 Sudeste 6 Sudoeste 0 -- -- 80
2018-01-21 02:00:00 13.9 0 Calma 5 Sur 0 -- -- 78
2018-01-21 01:00:00 14.5 0 Calma 5 Nordeste 0 -- -- 79
2018-01-21 00:00:00 14.7 3 Nordeste 8 Este 0 -- -- 75
2018-01-20 23:00:00 15.2 0 Calma 4 Norte 0 -- -- 74
2018-01-20 22:00:00 15.8 4 Nordeste 6 Nordeste 0 -- -- 76
2018-01-20 21:00:00 15.9 0 Calma 4 Este 0 -- -- 74
2018-01-20 20:00:00 17.2 4 Este 5 Este 0 -- -- 72
2018-01-20 19:00:00 18.1 3 Sudoeste 12 Sudoeste 0 -- -- 67
2018-01-20 18:00:00 20.1 5 Oeste 18 Oeste 0 -- -- 61
2018-01-20 17:00:00 21.4 8 Oeste 20 Oeste 0 -- -- 58
2018-01-20 16:00:00 21.6 12 Sudoeste 23 Sudoeste 0 -- -- 57
2018-01-20 15:00:00 22.2 7 Sudoeste 16 Sudoeste 0 -- -- 51
2018-01-20 14:00:00 21.5 9 Oeste 18 Oeste 0 -- -- 57
2018-01-20 13:00:00 21.5 8 Oeste 17 Oeste 0 -- -- 57
2018-01-20 12:00:00 21.1 8 Oeste 21 Sudoeste 0 -- -- 56
2018-01-20 11:00:00 20.2 4 Noroeste 11 Oeste 0 -- -- 59
2018-01-20 10:00:00 16.1 3 Sudoeste 4 Sur 0 -- -- 74
2018-01-20 09:00:00 15.7 0 Calma 8 Nordeste 0 -- -- 75
2018-01-20 08:00:00 15.2 5 Nordeste 10 Nordeste 0 -- -- 75
2018-01-20 07:00:00 15.2 6 Nordeste 10 Nordeste 0 -- -- 75
2018-01-20 06:00:00 14.5 2 Nordeste 10 Este 0 -- -- 80
2018-01-20 05:00:00 15 6 Este 10 Nordeste 0 -- -- 75
2018-01-20 04:00:00 14.7 2 Nordeste 5 Norte 0 -- -- 76
2018-01-20 03:00:00 15.3 2 Nordeste 10 Este 0 -- -- 72
2018-01-20 02:00:00 15.8 5 Nordeste 10 Norte 0 -- -- 71
2018-01-20 01:00:00 16.3 4 Norte 9 Norte 0 -- -- 70
2018-01-20 00:00:00 15.7 3 Norte 8 Norte 0 -- -- 72
2018-01-19 23:00:00 16.1 5 Nordeste 8 Nordeste 0 -- -- 70
2018-01-19 22:00:00 16.1 3 Nordeste 6 Este 0 -- -- 71
2018-01-19 21:00:00 15.9 0 Calma 4 Norte 0 -- -- 70
2018-01-19 20:00:00 16.8 0 Calma 4 Nordeste 0 -- -- 69
2018-01-19 19:00:00 17.6 0 Calma 8 Oeste 0 -- -- 65
2018-01-19 18:00:00 -- -- -- -- -- -- -- -- --
2018-01-19 17:00:00 20.4 6 Sudoeste 17 Sudoeste 0 -- -- 57
2018-01-19 16:00:00 20.5 7 Oeste 18 Oeste 0 -- -- 58
2018-01-19 15:00:00 21.3 9 Oeste 19 Noroeste 0 -- -- 53
2018-01-19 14:00:00 21.8 8 Oeste 18 Oeste 0 -- -- 49
2018-01-19 13:00:00 21.9 9 Oeste 17 Oeste 0 -- -- 50
2018-01-19 12:00:00 20.6 6 Oeste 13 Oeste 0 -- -- 52
2018-01-19 11:00:00 19.9 9 Sudoeste 15 Sudoeste 0 -- -- 57
2018-01-19 10:00:00 16.6 2 Sudoeste 8 Este 0 -- -- 68
2018-01-19 09:00:00 16 5 Nordeste 13 Nordeste 0 -- -- 64
2018-01-19 08:00:00 15.3 7 Este 13 Este 0 -- -- 68
2018-01-19 07:00:00 15.4 7 Este 9 Este 0 -- -- 71
2018-01-19 06:00:00 14.7 0 Calma 5 Nordeste 0 -- -- 75
2018-01-19 05:00:00 14.8 0 Calma 8 Este 0 -- -- 74
2018-01-19 04:00:00 15.7 4 Este 8 Nordeste 0 -- -- 71
2018-01-19 03:00:00 16.5 3 Este 6 Este 0 -- -- 71
2018-01-19 02:00:00 17.2 2 Nordeste 5 Este 0 -- -- 70
2018-01-19 01:00:00 17.3 2 Sur 5 Oeste 0 -- -- 70
2018-01-19 00:00:00 17.4 3 Oeste 13 Sudoeste 0 -- -- 71
2018-01-18 23:00:00 17.4 2 Sudoeste 6 Norte 0 -- -- 70
2018-01-18 22:00:00 17.4 0 Calma 4 Noroeste 0 -- -- 68
2018-01-18 21:00:00 17.5 0 Calma 6 Oeste 0 -- -- 68
2018-01-18 20:00:00 17.7 3 Noroeste 7 Oeste 0 -- -- 67
2018-01-18 19:00:00 18.2 0 Calma 13 Oeste 0 -- -- 66
2018-01-18 18:00:00 19.9 7 Oeste 17 Oeste 0 -- -- 62
2018-01-18 17:00:00 20.5 8 Oeste 17 Sudoeste 0 -- -- 56
2018-01-18 16:00:00 21.1 6 Oeste 13 Sudoeste 0 -- -- 53
2018-01-18 15:00:00 19.4 5 Oeste 19 Oeste 0 -- -- 59
2018-01-18 14:00:00 19.7 10 Sudoeste 21 Sudoeste 0 -- -- 61
2018-01-18 13:00:00 19.6 9 Sudoeste 17 Oeste 0 -- -- 60
2018-01-18 12:00:00 20.3 5 Noroeste 14 Oeste 0 -- -- 62
2018-01-18 11:00:00 18.9 4 Sudoeste 9 Sudoeste 0 -- -- 69
2018-01-18 10:00:00 17.6 0 Calma 5 Sur 0 -- -- 76
2018-01-18 09:00:00 16.6 0 Calma 5 Nordeste 0 -- -- 75
2018-01-18 08:00:00 16.5 5 Nordeste 9 Este 0 -- -- 74
2018-01-18 07:00:00 16.4 5 Este 6 Este 0 -- -- 72
2018-01-18 06:00:00 16.1 0 Calma 6 Nordeste 0 -- -- 77
2018-01-18 05:00:00 15 2 Nordeste 6 Sudeste 0 -- -- 72
2018-01-18 04:00:00 14.9 0 Calma 11 Este 0 -- -- 74
2018-01-18 03:00:00 14.5 0 Calma 6 Este 0 -- -- 78
2018-01-18 02:00:00 15.9 3 Nordeste 6 Este 0 -- -- 73
2018-01-18 01:00:00 15.8 3 Nordeste 6 Nordeste 0 -- -- 72
2018-01-18 00:00:00 15.8 2 Nordeste 10 Este 0 -- -- 66
2018-01-17 23:00:00 15.9 0 Calma 7 Norte 0 -- -- 71
2018-01-17 22:00:00 16.2 0 Calma 4 Nordeste 0 -- -- 70
2018-01-17 21:00:00 16.4 0 Calma 5 Sudoeste 0 -- -- 70
2018-01-17 20:00:00 17.2 0 Calma 5 Sudoeste 0 -- -- 64
2018-01-17 19:00:00 18.1 0 Calma 13 Sudoeste 0 -- -- 66
2018-01-17 18:00:00 20 7 Sudoeste 17 Sudoeste 0 -- -- 58
2018-01-17 17:00:00 21.3 9 Sudoeste 17 Sudoeste 0 -- -- 53
2018-01-17 16:00:00 21.3 10 Sudoeste 19 Sudoeste 0 -- -- 52
2018-01-17 15:00:00 21.6 8 Oeste 22 Sudoeste 0 -- -- 53
2018-01-17 14:00:00 21.5 10 Sudoeste 22 Sudoeste 0 -- -- 54
2018-01-17 13:00:00 21.4 10 Oeste 20 Oeste 0 -- -- 54
2018-01-17 12:00:00 21.1 10 Sudoeste 18 Sudoeste 0 -- -- 52
2018-01-17 11:00:00 19.8 5 Oeste 11 Nordeste 0 -- -- 58
2018-01-17 10:00:00 16.6 4 Este 12 Este 0 -- -- 67
2018-01-17 09:00:00 15.5 8 Este 17 Este 0 -- -- 67
2018-01-17 08:00:00 14.9 9 Este 16 Este 0 -- -- 71
2018-01-17 07:00:00 14.8 8 Este 12 Este 0 -- -- 69
2018-01-17 06:00:00 14.8 5 Nordeste 10 Nordeste 0 -- -- 69
2018-01-17 05:00:00 14.4 2 Nordeste 10 Nordeste 0 -- -- 70
2018-01-17 04:00:00 14.9 4 Nordeste 12 Nordeste 0 -- -- 69
2018-01-17 03:00:00 14.6 0 Calma 10 Este 0 -- -- 70
2018-01-17 02:00:00 15.2 7 Este 12 Este 0 -- -- 63
2018-01-17 01:00:00 15 0 Calma 11 Este 0 -- -- 65
2018-01-17 00:00:00 15.1 4 Este 15 Este 0 -- -- 65
2018-01-16 23:00:00 15.6 6 Este 14 Este 0 -- -- 63
2018-01-16 22:00:00 16 3 Nordeste 5 Este 0 -- -- 63
2018-01-16 21:00:00 16.3 3 Sur 11 Norte 0 -- -- 61
2018-01-16 20:00:00 17.3 5 Norte 16 Oeste 0 -- -- 60
2018-01-16 19:00:00 17.5 4 Oeste 16 Noroeste 0 -- -- 60
2018-01-16 18:00:00 19.7 6 Oeste 16 Oeste 0 -- -- 52
2018-01-16 17:00:00 21.1 5 Noroeste 18 Noroeste 0 -- -- 46
2018-01-16 16:00:00 20.5 10 Sudoeste 26 Sudoeste 0 -- -- 47
2018-01-16 15:00:00 21.2 11 Sudoeste 24 Sudoeste 0 -- -- 45
2018-01-16 14:00:00 21.6 8 Noroeste 22 Sudoeste 0 -- -- 38
2018-01-16 13:00:00 20.3 5 Noroeste 24 Sudoeste 0 -- -- 45
2018-01-16 12:00:00 20.7 10 Oeste 26 Oeste 0 -- -- 45
2018-01-16 11:00:00 20.6 9 Oeste 25 Sudoeste 0 -- -- 46
2018-01-16 10:00:00 17.2 6 Oeste 27 Sudoeste 0 -- -- 56
2018-01-16 09:00:00 15.8 4 Sudeste 17 Sur 0 -- -- 57
2018-01-16 08:00:00 15.6 7 Nordeste 19 Nordeste 0 -- -- 57
2018-01-16 07:00:00 15.6 9 Nordeste 19 Nordeste 0 -- -- 58
2018-01-16 06:00:00 14.7 3 Nordeste 12 Nordeste 0 -- -- 61
2018-01-16 05:00:00 15.3 2 Nordeste 15 Nordeste 0 -- -- 58
2018-01-16 04:00:00 15.6 9 Nordeste 18 Nordeste 0 -- -- 58
2018-01-16 03:00:00 14.7 0 Calma 8 Nordeste 0 -- -- 58
2018-01-16 02:00:00 15.5 3 Este 9 Nordeste 0 -- -- 58
2018-01-16 01:00:00 15.6 2 Este 9 Sudeste 0 -- -- 58
2018-01-16 00:00:00 15.6 4 Norte 8 Noroeste 0 -- -- 60
2018-01-15 23:00:00 15.8 2 Noroeste 7 Noroeste 0 -- -- 60
2018-01-15 22:00:00 16.5 3 Sudoeste 11 Oeste 0 -- -- 59
2018-01-15 21:00:00 16.5 3 Noroeste 10 Noroeste 0 -- -- 62
2018-01-15 20:00:00 17.4 0 Calma 9 Sudoeste 0 -- -- 59
2018-01-15 19:00:00 18.2 4 Sudoeste 15 Oeste 0 -- -- 66
2018-01-15 18:00:00 19.6 6 Noroeste 14 Noroeste 0 -- -- 58
2018-01-15 17:00:00 21.2 8 Oeste 23 Sudoeste 0 -- -- 54
2018-01-15 16:00:00 21.7 15 Sudoeste 31 Oeste 0 -- -- 50
2018-01-15 15:00:00 22 12 Sudoeste 20 Sudoeste 0 -- -- 45
2018-01-15 14:00:00 21.1 8 Sudoeste 19 Sudoeste 0 -- -- 49
2018-01-15 13:00:00 20.8 9 Sudoeste 19 Oeste 0 -- -- 54
2018-01-15 12:00:00 20.3 8 Oeste 17 Sudoeste 0 -- -- 54
2018-01-15 11:00:00 20.1 8 Sudoeste 14 Sudoeste 0 -- -- 53
2018-01-15 10:00:00 16.2 0 Calma 9 Este 0 -- -- 64
2018-01-15 09:00:00 15.2 6 Este 12 Nordeste 0 -- -- 64
2018-01-15 08:00:00 14.6 6 Nordeste 10 Nordeste 0 -- -- 68
2018-01-15 07:00:00 14.1 0 Calma 9 Este 0 -- -- 65
2018-01-15 06:00:00 14.8 7 Este 12 Este 0 -- -- 62
2018-01-15 05:00:00 15 8 Este 13 Este 0 -- -- 61
2018-01-15 04:00:00 15.5 4 Este 8 Sudeste 0 -- -- 61
2018-01-15 03:00:00 16.1 0 Calma 4 Nordeste 0 -- -- 58
2018-01-15 02:00:00 16.5 3 Nordeste 6 Sur 0 -- -- 56
2018-01-15 01:00:00 16.9 3 Noroeste 13 Norte 0 -- -- 56
2018-01-15 00:00:00 16.7 5 Noroeste 9 Noroeste 0 -- -- 61
2018-01-14 23:00:00 16.2 0 Calma 8 Sur 0 -- -- 63
2018-01-14 22:00:00 16.4 0 Calma 8 Sudeste 0 -- -- 61
2018-01-14 21:00:00 17.6 3 Sudeste 9 Nordeste 0 -- -- 57
2018-01-14 20:00:00 18.1 2 Sur 5 Norte 0 -- -- 58
2018-01-14 19:00:00 18.5 2 Oeste 10 Sudoeste 0 -- -- 59
2018-01-14 18:00:00 21.1 4 Oeste 12 Oeste 0 -- -- 50
2018-01-14 17:00:00 20.1 4 Oeste 10 Oeste 0 -- -- 55
2018-01-14 16:00:00 19.2 8 Oeste 20 Sudoeste 0 -- -- 61
2018-01-14 15:00:00 19.5 6 Sudoeste 14 Sudoeste 0 -- -- 61
2018-01-14 14:00:00 19.4 8 Oeste 19 Oeste 0 -- -- 61
2018-01-14 13:00:00 20.8 8 Oeste 15 Oeste 0 -- -- 60
2018-01-14 12:00:00 19.3 5 Oeste 9 Sudoeste 0 -- -- 63
2018-01-14 11:00:00 19.1 4 Oeste 8 Sudoeste 0 -- -- 60
2018-01-14 10:00:00 17.1 0 Calma 5 Este 0 -- -- 68
2018-01-14 09:00:00 15.5 2 Este 10 Este 0 -- -- 69
2018-01-14 08:00:00 15.1 4 Este 9 Este 0 -- -- 70
2018-01-14 07:00:00 14.4 0 Calma 3 Noroeste 0 -- -- 75
2018-01-14 06:00:00 14.9 0 Calma 10 Este 0 -- -- 71
2018-01-14 05:00:00 14.9 2 Nordeste 10 Este 0 -- -- 71
2018-01-14 04:00:00 15.2 4 Este 8 Este 0 -- -- 70
2018-01-14 03:00:00 15.4 0 Calma 8 Nordeste 0 -- -- 69
2018-01-14 02:00:00 15.5 4 Nordeste 7 Norte 0 -- -- 69
2018-01-14 01:00:00 15.4 0 Calma 9 Nordeste 0 -- -- 67
2018-01-14 00:00:00 15.6 6 Nordeste 10 Nordeste 0 -- -- 66
2018-01-13 23:00:00 15.4 5 Nordeste 8 Nordeste 0 -- -- 68
2018-01-13 22:00:00 15.9 3 Este 6 Este 0 -- -- 66
2018-01-13 21:00:00 16 5 Este 7 Este 0 -- -- 64
2018-01-13 20:00:00 15.9 0 Calma 2 Sudoeste 0 -- -- 63
2018-01-13 19:00:00 17.4 0 Calma 5 Oeste 0 -- -- 59
2018-01-13 18:00:00 18.5 4 Oeste 8 Oeste 0 -- -- 57
2018-01-13 17:00:00 18.7 4 Oeste 12 Sudoeste 0 -- -- 56
2018-01-13 16:00:00 19 5 Noroeste 17 Sudoeste 0 -- -- 57
2018-01-13 15:00:00 19.3 7 Oeste 20 Sudoeste 0 -- -- 55
2018-01-13 14:00:00 21.4 9 Oeste 22 Noroeste 0 -- -- 48
2018-01-13 13:00:00 21 9 Noroeste 21 Sudoeste 0 -- -- 48
2018-01-13 12:00:00 19.8 9 Noroeste 23 Norte 0 -- -- 51
2018-01-13 11:00:00 20.9 4 Sudoeste 14 Sudoeste 0 -- -- 46
2018-01-13 10:00:00 17.9 3 Oeste 12 Sudeste 0 -- -- 54
2018-01-13 09:00:00 16.8 4 Este 17 Nordeste 0 -- -- 58
2018-01-13 08:00:00 16.2 3 Nordeste 10 Nordeste 0 -- -- 61
2018-01-13 07:00:00 16.1 3 Noroeste 13 Norte 0 -- -- 62
2018-01-13 06:00:00 16.3 6 Norte 12 Nordeste 0 -- -- 59
2018-01-13 05:00:00 16.6 5 Nordeste 13 Nordeste 0 -- -- 59
2018-01-13 04:00:00 16.9 5 Nordeste 15 Nordeste 0 -- -- 59
2018-01-13 03:00:00 16.9 4 Este 9 Este 0 -- -- 59
2018-01-13 02:00:00 16.8 3 Oeste 8 Oeste 0 -- -- 62
2018-01-13 01:00:00 16.8 2 Sudeste 9 Sudeste 0 -- -- 62
2018-01-13 00:00:00 16.5 2 Sudoeste 10 Nordeste 0 -- -- 63
2018-01-12 23:00:00 16.4 4 Nordeste 9 Nordeste 0 -- -- 63
2018-01-12 22:00:00 16.6 4 Nordeste 8 Nordeste 0 -- -- 65
2018-01-12 21:00:00 17.1 4 Este 12 Nordeste 0 -- -- 66
2018-01-12 20:00:00 17.3 2 Norte 6 Noroeste 0 -- -- 66
2018-01-12 19:00:00 17.5 3 Oeste 13 Sudoeste 0 -- -- 67
2018-01-12 18:00:00 18.1 7 Sudoeste 12 Oeste 0 -- -- 66
2018-01-12 17:00:00 19.5 6 Sudoeste 13 Oeste 0 -- -- 60
2018-01-12 16:00:00 19.6 6 Oeste 14 Sudoeste 0 -- -- 59
2018-01-12 15:00:00 20.4 6 Oeste 17 Sudoeste 0 -- -- 58
2018-01-12 14:00:00 21.1 10 Oeste 18 Oeste 0 -- -- 56
2018-01-12 13:00:00 21.1 8 Oeste 15 Oeste 0 -- -- 53
2018-01-12 12:00:00 20.4 9 Oeste 15 Oeste 0 -- -- 56
2018-01-12 11:00:00 19.3 7 Sudoeste 15 Sudoeste 0 -- -- 60
2018-01-12 10:00:00 15.6 0 Calma 8 Este 0 -- -- 72
2018-01-12 09:00:00 15.3 6 Este 12 Este 0 -- -- 67
2018-01-12 08:00:00 14.8 8 Este 13 Este 0 -- -- 72
2018-01-12 07:00:00 14.4 6 Este 9 Este 0 -- -- 77
2018-01-12 06:00:00 12.6 0 Calma 5 Sur 0 -- -- 88
2018-01-12 05:00:00 13.5 0 Calma 5 Sudeste 0 -- -- 80
2018-01-12 04:00:00 14.6 0 Calma 8 Este 0 -- -- 76
2018-01-12 03:00:00 14.7 4 Este 6 Este 0 -- -- 76
2018-01-12 02:00:00 14.4 0 Calma 2 Este 0 -- -- 78
2018-01-12 01:00:00 15.1 0 Calma 4 Este 0 -- -- 74
2018-01-12 00:00:00 16 4 Sudeste 7 Sudeste 0 -- -- 72
2018-01-11 23:00:00 16.9 2 Norte 10 Sudeste 0 -- -- 70
2018-01-11 22:00:00 17.6 2 Este 10 Sudeste 0 -- -- 69
2018-01-11 21:00:00 17.6 2 Sudeste 9 Oeste 0 -- -- 71
2018-01-11 20:00:00 17.7 5 Oeste 12 Noroeste 0 -- -- 71
2018-01-11 19:00:00 18 4 Noroeste 11 Noroeste 0 -- -- 70
2018-01-11 18:00:00 20.4 6 Oeste 15 Sudoeste 0 -- -- 62
2018-01-11 17:00:00 20.6 11 Sudoeste 18 Sudoeste 0 -- -- 63
2018-01-11 16:00:00 21.3 8 Sudoeste 16 Sudoeste 0 -- -- 65
2018-01-11 15:00:00 21.2 7 Oeste 17 Sudoeste 0 -- -- 65
2018-01-11 14:00:00 22.1 9 Sudoeste 19 Sudoeste 0 -- -- 62
2018-01-11 13:00:00 21.8 12 Sudoeste 21 Sudoeste 0 -- -- 64
2018-01-11 12:00:00 20.2 8 Sudoeste 16 Sudoeste 0 -- -- 69
2018-01-11 11:00:00 19.5 4 Noroeste 8 Oeste 0 -- -- 72
2018-01-11 10:00:00 16.4 2 Sur 4 Sudoeste 0 -- -- 84
2018-01-11 09:00:00 15.4 2 Nordeste 8 Este 0 -- -- 76
2018-01-11 08:00:00 15.2 5 Este 9 Este 0 -- -- 75
2018-01-11 07:00:00 15.1 4 Este 10 Este 0 -- -- 77
2018-01-11 06:00:00 15.8 4 Este 12 Este 0 -- -- 70
2018-01-11 05:00:00 16.2 6 Este 11 Este 0 -- -- 78
2018-01-11 04:00:00 16.5 2 Este 10 Este 0 -- -- 81
2018-01-11 03:00:00 16.4 4 Este 11 Este 0 -- -- 78
2018-01-11 02:00:00 16.3 0 Calma 6 Este 0 -- -- 83
2018-01-11 01:00:00 16.7 6 Este 10 Este 0 -- -- 77
2018-01-11 00:00:00 16.6 3 Norte 5 Norte 0 -- -- 84
2018-01-10 23:00:00 17 0 Calma 8 Este 0 -- -- 79
2018-01-10 22:00:00 16.9 2 Nordeste 6 Nordeste 0 -- -- 82
2018-01-10 21:00:00 17.7 3 Este 5 Este 0 -- -- 80
2018-01-10 20:00:00 18.4 0 Calma 3 Noroeste 0 -- -- 76
2018-01-10 19:00:00 19 3 Sudoeste 8 Sudoeste 0 -- -- 73
2018-01-10 18:00:00 19.5 3 Sudoeste 10 Oeste 0 -- -- 68
2018-01-10 17:00:00 20.5 6 Oeste 13 Oeste 0 -- -- 67
2018-01-10 16:00:00 21 6 Oeste 14 Oeste 0 -- -- 68
2018-01-10 15:00:00 21.6 6 Oeste 11 Oeste 0 -- -- 65
2018-01-10 14:00:00 20.3 5 Noroeste 10 Oeste 0 -- -- 71
2018-01-10 13:00:00 20.4 6 Noroeste 12 Noroeste 0 -- -- 70
2018-01-10 12:00:00 21.4 6 Sudoeste 12 Sudoeste 0 -- -- 64
2018-01-10 11:00:00 20.6 5 Sudoeste 12 Sudoeste 0 -- -- 65
2018-01-10 10:00:00 18.4 3 Noroeste 11 Nordeste 0 -- -- 72
2018-01-10 09:00:00 18 4 Nordeste 10 Este 0 -- -- 67
2018-01-10 08:00:00 17.8 5 Nordeste 12 Nordeste 0 -- -- 68
2018-01-10 07:00:00 17 9 Este 13 Nordeste 0 -- -- 70
2018-01-10 06:00:00 15.6 3 Este 4 Este 0 -- -- 78
2018-01-10 05:00:00 15 0 Calma 4 Noroeste 0 -- -- 80
2018-01-10 04:00:00 15.1 0 Calma 6 Este 0 -- -- 81
2018-01-10 03:00:00 15.1 0 Calma 3 Nordeste 0 -- -- 81
2018-01-10 02:00:00 15.9 3 Sudeste 7 Sudeste 0 -- -- 79
2018-01-10 01:00:00 16.7 0 Calma 3 Sur 0 -- -- 83
2018-01-10 00:00:00 17.4 0 Calma 4 Noroeste 0 -- -- 79
2018-01-09 23:00:00 17.8 3 Norte 4 Norte 0 -- -- 80
2018-01-09 22:00:00 17.9 0 Calma 8 Noroeste 0 -- -- 80
2018-01-09 21:00:00 18.1 3 Noroeste 7 Noroeste 0 -- -- 79
2018-01-09 20:00:00 18.1 3 Norte 9 Noroeste 0 -- -- 81
2018-01-09 19:00:00 18.2 3 Oeste 10 Oeste 0 -- -- 79
2018-01-09 18:00:00 18.4 6 Oeste 15 Noroeste 0 -- -- 77
2018-01-09 17:00:00 18.7 4 Oeste 11 Sudoeste 0 -- -- 73
2018-01-09 16:00:00 19.3 6 Oeste 15 Sudoeste 0 -- -- 69
2018-01-09 15:00:00 21.2 8 Oeste 17 Oeste 0 -- -- 62
2018-01-09 14:00:00 20.5 7 Oeste 15 Oeste 0 -- -- 66
2018-01-09 13:00:00 20.5 6 Oeste 15 Oeste 0 -- -- 69
2018-01-09 12:00:00 21.3 8 Sudoeste 14 Sudoeste 0 -- -- 67
2018-01-09 11:00:00 19.3 3 Sudoeste 9 Oeste 0 -- -- 76
2018-01-09 10:00:00 17.4 2 Sudeste 6 Sur 0 -- -- 84
2018-01-09 09:00:00 16.7 0 Calma 6 Norte 0 -- -- 84
2018-01-09 08:00:00 16.3 4 Noroeste 15 Noroeste 0 -- -- 82
2018-01-09 07:00:00 16 4 Noroeste 10 Norte 0 -- -- 85
2018-01-09 06:00:00 16 5 Noroeste 10 Noroeste 0 -- -- 86
2018-01-09 05:00:00 15.4 0 Calma 6 Este 0 -- -- 85
2018-01-09 04:00:00 16.3 2 Nordeste 5 Este 0 -- -- 83
2018-01-09 03:00:00 15.8 2 Nordeste 8 Nordeste 0 -- -- 80
2018-01-09 02:00:00 16.4 3 Este 4 Nordeste 0 -- -- 81
2018-01-09 01:00:00 16.6 0 Calma 7 Este 0 -- -- 80
2018-01-09 00:00:00 16.9 3 Este 5 Este 0 -- -- 81
2018-01-08 23:00:00 17.2 3 Sudeste 17 Nordeste 0 -- -- 78
2018-01-08 22:00:00 17.5 9 Nordeste 19 Nordeste 0 -- -- 78
2018-01-08 21:00:00 17.6 9 Nordeste 23 Este 0 -- -- 78
2018-01-08 20:00:00 17.4 10 Nordeste 26 Norte 0 -- -- 79
2018-01-08 19:00:00 17.4 6 Este 16 Este 0.2 -- -- 82
2018-01-08 18:00:00 18.6 3 Noroeste 9 Sudoeste 0 -- -- 77
2018-01-08 17:00:00 19.4 4 Oeste 13 Sudoeste 0 -- -- 73
2018-01-08 16:00:00 19.1 3 Oeste 25 Sur 0 -- -- 76
2018-01-08 15:00:00 20.2 10 Sudoeste 19 Sudoeste 0 -- -- 65
2018-01-08 14:00:00 21.6 6 Oeste 17 Sudoeste 0 -- -- 60
2018-01-08 13:00:00 21 5 Nordeste 19 Nordeste 0 -- -- 59
2018-01-08 12:00:00 19.4 6 Norte 17 Norte 0 -- -- 67
2018-01-08 11:00:00 20.3 4 Nordeste 15 Nordeste 0 -- -- 56
2018-01-08 10:00:00 17.3 2 Oeste 13 Este 0 -- -- 68
2018-01-08 09:00:00 15.8 9 Nordeste 14 Nordeste 0 -- -- 65
2018-01-08 08:00:00 15.1 8 Este 13 Nordeste 0 -- -- 63
2018-01-08 07:00:00 15.7 8 Nordeste 16 Nordeste 0 -- -- 64
2018-01-08 06:00:00 15.4 8 Este 15 Nordeste 0 -- -- 66
2018-01-08 05:00:00 15.2 8 Este 12 Nordeste 0 -- -- 64
2018-01-08 04:00:00 15.8 6 Este 12 Este 0 -- -- 61
2018-01-08 03:00:00 15.7 5 Este 13 Nordeste 0 -- -- 62
2018-01-08 02:00:00 15.7 8 Nordeste 17 Nordeste 0 -- -- 61
2018-01-08 01:00:00 15 6 Este 10 Este 0 -- -- 58
2018-01-08 00:00:00 15 3 Este 10 Este 0 -- -- 60
2018-01-07 23:00:00 15.6 3 Nordeste 11 Nordeste 0 -- -- 57
2018-01-07 22:00:00 15.3 4 Sur 7 Nordeste 0 -- -- 63
2018-01-07 21:00:00 15.7 2 Sudoeste 13 Este 0 -- -- 63
2018-01-07 20:00:00 16.6 4 Norte 9 Norte 0 -- -- 61
2018-01-07 19:00:00 17.4 4 Nordeste 12 Nordeste 0 -- -- 59
2018-01-07 18:00:00 19.2 5 Noroeste 19 Sudoeste 0 -- -- 54
2018-01-07 17:00:00 20.3 5 Norte 19 Norte 0 -- -- 49
2018-01-07 16:00:00 20.3 11 Sudoeste 22 Sudoeste 0 -- -- 47
2018-01-07 15:00:00 21.9 6 Noroeste 22 Oeste 0 -- -- 44
2018-01-07 14:00:00 21.9 6 Oeste 26 Sudoeste 0 -- -- 45
2018-01-07 13:00:00 21.9 10 Sudoeste 24 Sudoeste 0 -- -- 46
2018-01-07 12:00:00 20.1 6 Sudoeste 17 Sudoeste 0 -- -- 48
2018-01-07 11:00:00 19.3 9 Sudoeste 15 Oeste 0 -- -- 55
2018-01-07 10:00:00 17.4 0 Calma 12 Este 0 -- -- 61
2018-01-07 09:00:00 16.7 6 Nordeste 11 Nordeste 0 -- -- 62
2018-01-07 08:00:00 16 2 Sur 7 Sur 0 -- -- 66
2018-01-07 07:00:00 15.7 3 Este 17 Nordeste 0 -- -- 67
2018-01-07 06:00:00 16.7 6 Nordeste 16 Este 0 -- -- 64
2018-01-07 05:00:00 16.1 6 Nordeste 13 Nordeste 0 -- -- 69
2018-01-07 04:00:00 15.6 3 Nordeste 9 Sudoeste 0 -- -- 68
2018-01-07 03:00:00 15.8 6 Sudoeste 15 Sudoeste 0 -- -- 65
2018-01-07 02:00:00 16.3 4 Sudoeste 17 Nordeste 0 -- -- 69
2018-01-07 01:00:00 16.7 3 Este 6 Sur 0 -- -- 70
2018-01-07 00:00:00 16.6 3 Sudoeste 12 Nordeste 0 -- -- 70
2018-01-06 23:00:00 16.2 2 Nordeste 17 Nordeste 0 -- -- 71
2018-01-06 22:00:00 16.9 4 Nordeste 12 Norte 0 -- -- 71
2018-01-06 21:00:00 16.9 0 Calma 13 Sudoeste 0 -- -- 66
2018-01-06 20:00:00 17.4 2 Sudeste 16 Sudoeste 0 -- -- 60
2018-01-06 19:00:00 17 7 Noroeste 37 Oeste 0 -- -- 64
2018-01-06 18:00:00 18 9 Sudoeste 49 Este 0 -- -- 59
2018-01-06 17:00:00 19.5 17 Este 52 Nordeste 0 -- -- 51
2018-01-06 16:00:00 20.9 8 Oeste 33 Nordeste 0 -- -- 56
2018-01-06 15:00:00 19.6 19 Sudoeste 44 Sudoeste 0 -- -- 56
2018-01-06 14:00:00 18.9 10 Noroeste 42 Oeste 0 -- -- 55
2018-01-06 13:00:00 20.5 4 Norte 33 Noroeste 0 -- -- 52
2018-01-06 12:00:00 20.9 8 Oeste 21 Oeste 0 -- -- 50
2018-01-06 11:00:00 20.2 5 Oeste 14 Sudoeste 0 -- -- 57
2018-01-06 10:00:00 18.2 6 Noroeste 15 Noroeste 0 -- -- 66
2018-01-06 09:00:00 16 2 Norte 22 Norte 0 -- -- 71
2018-01-06 08:00:00 16.7 8 Nordeste 15 Nordeste 0 -- -- 74
2018-01-06 07:00:00 16.1 4 Sur 22 Nordeste 0 -- -- 72
2018-01-06 06:00:00 16.5 6 Nordeste 26 Norte 0 -- -- 73
2018-01-06 05:00:00 16.2 4 Este 17 Nordeste 0 -- -- 71
2018-01-06 04:00:00 16.9 10 Nordeste 37 Oeste 0 -- -- 65
2018-01-06 03:00:00 16.9 3 Sur 34 Norte 0 -- -- 62
2018-01-06 02:00:00 17.8 11 Norte 45 Nordeste 0 -- -- 64
2018-01-06 01:00:00 16.3 5 Oeste 14 Nordeste 0 -- -- 70
2018-01-06 00:00:00 16.7 4 Este 19 Nordeste 0 -- -- 64
2018-01-05 23:00:00 16.3 9 Nordeste 19 Nordeste 0 -- -- 75
2018-01-05 22:00:00 16.4 9 Nordeste 18 Nordeste 0 -- -- 82
2018-01-05 21:00:00 16.7 4 Este 19 Nordeste 0 -- -- 77
2018-01-05 20:00:00 17.1 4 Sudeste 13 Sudeste 0 -- -- 74
2018-01-05 19:00:00 18.3 4 Norte 22 Nordeste 0 -- -- 68
2018-01-05 18:00:00 19.3 10 Oeste 30 Oeste 0 -- -- 68
2018-01-05 17:00:00 20.4 13 Oeste 31 Oeste 0 -- -- 65
2018-01-05 16:00:00 21.5 13 Noroeste 28 Noroeste 0 -- -- 57
2018-01-05 15:00:00 22.2 10 Oeste 19 Sudoeste 0 -- -- 49
2018-01-05 14:00:00 22.5 8 Oeste 17 Oeste 0 -- -- 60
2018-01-05 13:00:00 22.9 7 Sudoeste 15 Sudoeste 0 -- -- 56
2018-01-05 12:00:00 22.1 5 Sudoeste 11 Sudoeste 0 -- -- 53
2018-01-05 11:00:00 19.8 3 Sur 14 Noroeste 0 -- -- 65
2018-01-05 10:00:00 15.9 6 Oeste 17 Oeste 0 -- -- 87
2018-01-05 09:00:00 13.1 2 Sur 8 Sur 0 -- -- 85
2018-01-05 08:00:00 13.4 0 Calma 8 Este 0 -- -- 88
2018-01-05 07:00:00 14.6 3 Nordeste 5 Este 0 -- -- 90
2018-01-05 06:00:00 13.5 0 Calma 6 Este 0 -- -- 92
2018-01-05 05:00:00 13.4 3 Sudeste 6 Este 0 -- -- 85
2018-01-05 04:00:00 13.8 3 Nordeste 7 Este 0 -- -- 88
2018-01-05 03:00:00 14.4 0 Calma 6 Nordeste 0 -- -- 86
2018-01-05 02:00:00 14.6 0 Calma 5 Este 0 -- -- 83
2018-01-05 01:00:00 14.8 0 Calma 8 Este 0 -- -- 80
2018-01-05 00:00:00 15.5 3 Este 8 Este 0 -- -- 79
2018-01-04 23:00:00 15.6 0 Calma 4 Nordeste 0 -- -- 86
2018-01-04 22:00:00 16.7 2 Este 6 Este 0 -- -- 77
2018-01-04 21:00:00 16.8 2 Este 8 Sur 0 -- -- 78
2018-01-04 20:00:00 17.3 0 Calma 6 Sur 0 -- -- 78
2018-01-04 19:00:00 18.8 0 Calma 4 Sudoeste 0 -- -- 67
2018-01-04 18:00:00 21.8 0 Calma 9 Oeste 0 -- -- 60
2018-01-04 17:00:00 22.5 5 Oeste 13 Sudoeste 0 -- -- 60
2018-01-04 16:00:00 22.5 9 Sudoeste 21 Sudoeste 0 -- -- 63
2018-01-04 15:00:00 22.8 8 Sudoeste 21 Oeste 0 -- -- 59
2018-01-04 14:00:00 23 10 Sudoeste 21 Oeste 0 -- -- 58
2018-01-04 13:00:00 23 8 Sudoeste 18 Sudoeste 0 -- -- 59
2018-01-04 12:00:00 23.4 6 Sudoeste 12 Sudoeste 0 -- -- 54
2018-01-04 11:00:00 21.3 6 Sudoeste 13 Sudoeste 0 -- -- 66
2018-01-04 10:00:00 17.7 3 Sudeste 7 Sur 0 -- -- 77
2018-01-04 09:00:00 16.8 6 Este 9 Nordeste 0 -- -- 69
2018-01-04 08:00:00 15.3 3 Este 12 Este 0 -- -- 71
2018-01-04 07:00:00 14 0 Calma 5 Este 0 -- -- 71
2018-01-04 06:00:00 13.3 0 Calma 7 Este 0 -- -- 75
2018-01-04 05:00:00 12.3 2 Sur 6 Sudeste 0 -- -- 84
2018-01-04 04:00:00 13.3 2 Sur 5 Este 0 -- -- 78
2018-01-04 03:00:00 13.2 0 Calma 5 Sudeste 0 -- -- 80
2018-01-04 02:00:00 13.5 0 Calma 8 Noroeste 0 -- -- 86
2018-01-04 01:00:00 13.6 0 Calma 6 Sudeste 0 -- -- 86
2018-01-04 00:00:00 14.5 2 Sudeste 5 Sur 0 -- -- 84
2018-01-03 23:00:00 16.1 0 Calma 7 Este 0 -- -- 82
2018-01-03 22:00:00 16.7 2 Sudeste 4 Sudeste 0 -- -- 83
2018-01-03 21:00:00 16.9 0 Calma 4 Nordeste 0 -- -- 84
2018-01-03 20:00:00 17.7 3 Este 4 Este 0 -- -- 83
2018-01-03 19:00:00 18.6 2 Sur 8 Norte 0 -- -- 79
2018-01-03 18:00:00 20.6 4 Oeste 15 Oeste 0 -- -- 70
2018-01-03 17:00:00 23 8 Sudoeste 14 Oeste 0 -- -- 59
2018-01-03 16:00:00 24.1 6 Sudoeste 16 Sudoeste 0 -- -- 54
2018-01-03 15:00:00 24.5 8 Sudoeste 15 Sudoeste 0 -- -- 53
2018-01-03 14:00:00 24.5 7 Oeste 15 Oeste 0 -- -- 49
2018-01-03 13:00:00 24.2 6 Sudoeste 13 Sudoeste 0 -- -- 54
2018-01-03 12:00:00 23.4 5 Sudoeste 8 Sudoeste 0 -- -- 53
2018-01-03 11:00:00 20.8 4 Sur 8 Sur 0 -- -- 66
2018-01-03 10:00:00 16.4 0 Calma 4 Este 0 -- -- 84
2018-01-03 09:00:00 15.9 0 Calma 8 Este 0 -- -- 79
2018-01-03 08:00:00 16.8 5 Este 9 Este 0 -- -- 83
2018-01-03 07:00:00 16.6 4 Este 7 Este 0 -- -- 83
2018-01-03 06:00:00 16.3 5 Este 9 Sudeste 0 -- -- 59
2018-01-03 05:00:00 13.6 0 Calma 9 Este 0 -- -- 71
2018-01-03 04:00:00 13.9 0 Calma 5 Este 0 -- -- 74
2018-01-03 03:00:00 14.7 2 Este 7 Noroeste 0 -- -- 82
2018-01-03 02:00:00 15.2 2 Este 8 Nordeste 0 -- -- 85
2018-01-03 01:00:00 15.6 0 Calma 11 Sur 0 -- -- 86
2018-01-03 00:00:00 15.2 2 Sur 9 Sudoeste 0 -- -- 86
2018-01-02 23:00:00 15.9 3 Nordeste 9 Nordeste 0 -- -- 86
2018-01-02 22:00:00 16.4 4 Este 9 Este 0 -- -- 87
2018-01-02 21:00:00 16.2 2 Este 4 Este 0 -- -- 84
2018-01-02 20:00:00 17.6 0 Calma 3 Este 0 -- -- 81
2018-01-02 19:00:00 18.6 3 Sudoeste 9 Oeste 0 -- -- 80
2018-01-02 18:00:00 21.2 3 Oeste 15 Oeste 0 -- -- 70
2018-01-02 17:00:00 22.9 7 Oeste 13 Oeste 0 -- -- 64
2018-01-02 16:00:00 23.6 8 Oeste 15 Oeste 0 -- -- 59
2018-01-02 15:00:00 23.8 8 Sudoeste 15 Oeste 0 -- -- 61
2018-01-02 14:00:00 24.5 8 Oeste 16 Oeste 0 -- -- 49
2018-01-02 13:00:00 24.1 8 Oeste 16 Oeste 0 -- -- 48
2018-01-02 12:00:00 24.3 6 Noroeste 12 Oeste 0 -- -- 43
2018-01-02 11:00:00 20.9 3 Este 13 Sur 0 -- -- 66
2018-01-02 10:00:00 17 0 Calma 6 Este 0 -- -- 74
2018-01-02 09:00:00 15.1 4 Nordeste 9 Este 0 -- -- 70
2018-01-02 08:00:00 15.2 3 Este 6 Sudeste 0 -- -- 67
2018-01-02 07:00:00 15.3 2 Nordeste 10 Nordeste 0 -- -- 59
2018-01-02 06:00:00 14.7 2 Este 8 Este 0 -- -- 64
2018-01-02 05:00:00 14.3 0 Calma 9 Este 0 -- -- 67
2018-01-02 04:00:00 15.8 4 Este 8 Este 0 -- -- 75
2018-01-02 03:00:00 15.6 3 Sur 11 Sudeste 0 -- -- 74
2018-01-02 02:00:00 16.9 5 Nordeste 10 Nordeste 0 -- -- 76
2018-01-02 01:00:00 17.1 6 Este 11 Este 0 -- -- 81
2018-01-02 00:00:00 16.4 0 Calma 9 Este 0 -- -- 80
2018-01-01 23:00:00 17 2 Sur 13 Norte 0 -- -- 77
2018-01-01 22:00:00 17.3 4 Nordeste 10 Sudeste 0 -- -- 76
2018-01-01 21:00:00 18.1 3 Este 8 Nordeste 0 -- -- 74
2018-01-01 20:00:00 17.1 0 Calma 3 Sudoeste 0 -- -- 73
2018-01-01 19:00:00 18.7 0 Calma 6 Sudoeste 0 -- -- 66
2018-01-01 18:00:00 21.8 4 Sudoeste 10 Sudoeste 0 -- -- 58
2018-01-01 17:00:00 23 5 Oeste 16 Sudoeste 0 -- -- 54
2018-01-01 16:00:00 23.3 8 Oeste 15 Sudoeste 0 -- -- 54
2018-01-01 15:00:00 23.3 7 Sudoeste 17 Sudoeste 0 -- -- 55
2018-01-01 14:00:00 22.9 9 Oeste 18 Sudoeste 0 -- -- 58
2018-01-01 13:00:00 23.1 8 Sudoeste 16 Oeste 0 -- -- 50
2018-01-01 12:00:00 22.9 7 Oeste 17 Sudoeste 0 -- -- 54
2018-01-01 11:00:00 22.1 3 Sudoeste 7 Oeste 0 -- -- 46
2018-01-01 10:00:00 17.4 2 Noroeste 8 Noroeste 0 -- -- 65
2018-01-01 09:00:00 16.6 0 Calma 9 Norte 0 -- -- 69
2018-01-01 08:00:00 16.2 2 Norte 12 Este 0 -- -- 61
2018-01-01 07:00:00 16.4 4 Este 12 Nordeste 0 -- -- 72
2018-01-01 06:00:00 15.9 3 Este 9 Este 0 -- -- 69
2018-01-01 05:00:00 16.2 3 Este 8 Sudoeste 0 -- -- 67
2018-01-01 04:00:00 16.2 2 Oeste 7 Nordeste 0 -- -- 69
2018-01-01 03:00:00 16.3 0 Calma 9 Este 0 -- -- 68
2018-01-01 02:00:00 16.8 0 Calma 9 Este 0 -- -- 72
2018-01-01 01:00:00 17.4 5 Nordeste 11 Norte 0 -- -- 78
2018-01-01 00:00:00 17.3 0 Calma 6 Nordeste 0 -- -- 71
2017-12-31 23:00:00 17.8 4 Norte 16 Nordeste 0 -- -- 75
2017-12-31 22:00:00 18.2 2 Nordeste 7 Este 0 -- -- 72
2017-12-31 21:00:00 18.5 4 Este 13 Este 0 -- -- 68
2017-12-31 20:00:00 19 6 Sudoeste 15 Sudoeste 0 -- -- 71
2017-12-31 19:00:00 19.3 0 Calma 6 Sudeste 0 -- -- 64
2017-12-31 18:00:00 23.1 0 Calma 10 Sudoeste 0 -- -- 49
2017-12-31 17:00:00 24.6 5 Oeste 10 Oeste 0 -- -- 47
2017-12-31 16:00:00 24.4 6 Sudoeste 17 Sudoeste 0 -- -- 45
2017-12-31 15:00:00 24.5 7 Sudoeste 14 Sudoeste 0 -- -- 47
2017-12-31 14:00:00 24.3 5 Oeste 15 Oeste 0 -- -- 49
2017-12-31 13:00:00 23.9 6 Sudoeste 12 Sudoeste 0 -- -- 51
2017-12-31 12:00:00 23.2 5 Oeste 12 Oeste 0 -- -- 52
2017-12-31 11:00:00 21.7 3 Oeste 8 Sudoeste 0 -- -- 58
2017-12-31 10:00:00 17.6 0 Calma 6 Este 0 -- -- 69
2017-12-31 09:00:00 17.1 0 Calma 12 Este 0 -- -- 43
2017-12-31 08:00:00 16.6 7 Este 9 Este 0 -- -- 77
2017-12-31 07:00:00 15.2 0 Calma 5 Nordeste 0 -- -- 67
2017-12-31 06:00:00 16.3 2 Nordeste 5 Nordeste 0 -- -- 64
2017-12-31 05:00:00 16.8 3 Sudeste 7 Oeste 0 -- -- 64
2017-12-31 04:00:00 16.9 3 Este 8 Este 0 -- -- 69
2017-12-31 03:00:00 17.2 3 Nordeste 5 Este 0 -- -- 72
2017-12-31 02:00:00 17.3 3 Sudoeste 6 Sudoeste 0 -- -- 58
2017-12-31 01:00:00 17.7 4 Nordeste 15 Nordeste 0 -- -- 58
2017-12-31 00:00:00 17.7 2 Este 8 Este 0 -- -- 64